Time;durP1;ratioP1;P1;durP2;ratioP2;P2;SDS_P1;SDS_P2;PMS_P1;PMS_P2;Temp;Humidity;BMP_temperature;BMP_pressure;BME280_temperature;BME280_humidity;BME280_pressure;Samples;Min_cycle;Max_cycle;Signal;HPM_P1;HPM_P2
2021/11/06 00:00:07;;;;;;;2.60;2.40;;;;;;;4.85;72.72;100549.97;5070203;28;20319;-79
2021/11/06 00:02:38;;;;;;;2.67;2.43;;;;;;;4.70;72.90;100533.81;5088337;28;20224;-80
2021/11/06 00:05:07;;;;;;;3.20;2.90;;;;;;;4.77;72.33;100539.31;5072194;28;20225;-80
2021/11/06 00:07:34;;;;;;;4.57;3.30;;;;;;;4.85;72.91;100545.47;5089947;28;20292;-80
2021/11/06 00:10:08;;;;;;;3.63;3.33;;;;;;;4.84;73.42;100540.34;5089242;28;20223;-79
2021/11/06 00:12:37;;;;;;;4.67;3.90;;;;;;;5.11;73.27;100544.56;5072531;28;20242;-80
2021/11/06 00:15:09;;;;;;;4.23;3.83;;;;;;;5.21;72.67;100537.28;5089001;28;20231;-80
2021/11/06 00:17:38;;;;;;;4.53;3.73;;;;;;;5.29;72.59;100545.28;5071278;28;20315;-80
2021/11/06 00:20:14;;;;;;;4.50;3.87;;;;;;;5.52;72.62;100535.66;5052317;28;20235;-79
2021/11/06 00:22:41;;;;;;;4.30;3.50;;;;;;;5.64;71.48;100555.63;5085434;28;20240;-80
2021/11/06 00:25:12;;;;;;;4.97;3.93;;;;;;;5.59;72.34;100552.63;5053139;28;20270;-79
2021/11/06 00:27:44;;;;;;;4.10;3.80;;;;;;;5.82;71.05;100554.63;5086676;28;20228;-80
2021/11/06 00:30:11;;;;;;;3.70;3.40;;;;;;;5.80;71.28;100569.91;5084158;28;20654;-80
2021/11/06 00:32:39;;;;;;;4.07;3.67;;;;;;;5.78;70.94;100565.56;5068549;28;20235;-80
2021/11/06 00:35:09;;;;;;;4.30;3.90;;;;;;;5.64;71.41;100573.41;5087247;28;20251;-81
2021/11/06 00:37:38;;;;;;;5.37;3.70;;;;;;;5.62;71.66;100586.03;5071582;28;20252;-80
2021/11/06 00:40:10;;;;;;;4.93;3.97;;;;;;;5.58;71.25;100582.88;5068081;28;20192;-79
2021/11/06 00:42:38;;;;;;;3.77;3.47;;;;;;;5.61;71.62;100589.66;5067230;28;20235;-80
2021/11/06 00:45:07;;;;;;;4.17;3.77;;;;;;;5.70;70.63;100589.50;5067810;28;20229;-81
2021/11/06 00:47:36;;;;;;;3.67;3.37;;;;;;;5.51;70.66;100588.97;5070749;28;20228;-80
2021/11/06 00:50:07;;;;;;;3.87;3.47;;;;;;;5.33;71.61;100581.16;5066318;28;20672;-80
2021/11/06 00:52:40;;;;;;;4.20;3.80;;;;;;;5.19;72.05;100573.81;5052435;28;20215;-82
2021/11/06 00:55:11;;;;;;;4.20;3.57;;;;;;;5.04;72.91;100575.44;5068135;28;20243;-80
2021/11/06 00:57:41;;;;;;;4.17;3.77;;;;;;;5.04;73.01;100581.56;5048472;28;20253;-80
2021/11/06 01:00:11;;;;;;;4.47;3.87;;;;;;;5.00;72.77;100584.69;5049451;28;20231;-80
2021/11/06 01:02:39;;;;;;;4.57;4.10;;;;;;;4.99;73.13;100583.91;5050573;28;20289;-79
2021/11/06 01:05:09;;;;;;;4.73;4.27;;;;;;;4.98;72.99;100587.53;5066225;28;20244;-80
2021/11/06 01:07:35;;;;;;;4.30;3.90;;;;;;;4.84;73.02;100574.88;5050006;28;20231;-79
2021/11/06 01:10:10;;;;;;;4.53;4.13;;;;;;;4.79;73.73;100587.78;5050758;28;20296;-80
2021/11/06 01:12:37;;;;;;;3.67;3.37;;;;;;;4.63;74.09;100575.25;5064473;28;20231;-80
2021/11/06 01:15:07;;;;;;;4.77;4.27;;;;;;;4.52;74.45;100575.53;5065875;28;20235;-80
2021/11/06 01:17:35;;;;;;;4.50;4.10;;;;;;;4.61;74.40;100587.03;5064888;28;20521;-80
2021/11/06 01:20:05;;;;;;;4.40;4.00;;;;;;;4.60;74.64;100593.31;5047303;28;20226;-79
2021/11/06 01:22:40;;;;;;;4.57;4.17;;;;;;;4.56;74.55;100595.47;5093871;23;20230;-80
2021/11/06 01:25:09;;;;;;;4.60;4.20;;;;;;;4.51;75.03;100596.94;5088636;28;20216;-79
2021/11/06 01:27:36;;;;;;;4.73;4.30;;;;;;;4.53;75.38;100602.88;5083871;28;20220;-79
2021/11/06 01:30:05;;;;;;;4.80;4.40;;;;;;;4.47;75.32;100604.38;5085755;28;20213;-80
2021/11/06 01:32:44;;;;;;;5.50;4.90;;;;;;;4.50;75.81;100608.53;5068961;28;20216;-80
2021/11/06 01:35:14;;;;;;;5.10;4.60;;;;;;;4.38;75.58;100590.22;5071503;23;20225;-79
2021/11/06 01:37:42;;;;;;;5.20;4.70;;;;;;;4.42;75.92;100591.56;5031972;28;20273;-80
2021/11/06 01:40:18;;;;;;;5.00;4.50;;;;;;;4.42;75.97;100596.03;5047425;28;20230;-80
2021/11/06 01:42:47;;;;;;;6.27;5.10;;;;;;;4.40;75.99;100604.16;5048795;28;20228;-80
2021/11/06 01:45:18;;;;;;;5.23;4.53;;;;;;;4.46;75.98;100597.41;5063673;28;20233;-79
2021/11/06 01:47:47;;;;;;;5.07;4.63;;;;;;;4.37;76.05;100593.88;5065584;28;20225;-79
2021/11/06 01:50:17;;;;;;;6.07;5.47;;;;;;;4.31;76.46;100583.88;5065724;28;20235;-80
2021/11/06 01:52:44;;;;;;;5.40;4.90;;;;;;;4.28;76.34;100586.84;5064451;28;20235;-80
2021/11/06 01:55:25;;;;;;;6.20;5.60;;;;;;;4.32;76.31;100596.16;5049709;28;20233;-80
2021/11/06 01:57:53;;;;;;;5.40;4.90;;;;;;;4.25;76.34;100587.13;5063996;28;20237;-79
2021/11/06 02:00:40;;;;;;;7.00;6.30;;;;;;;4.23;76.64;100591.78;5065326;28;20232;-80
2021/11/06 02:03:08;;;;;;;6.57;5.87;;;;;;;4.26;77.60;100596.75;5046437;28;20229;-80
2021/11/06 02:05:35;;;;;;;6.67;5.97;;;;;;;4.24;77.69;100597.91;5047237;28;20221;-80
2021/11/06 02:08:05;;;;;;;6.90;6.10;;;;;;;4.24;77.56;100597.91;5034618;28;20648;-80
2021/11/06 02:10:41;;;;;;;6.97;6.30;;;;;;;4.21;77.68;100596.41;5067567;28;20225;-79
2021/11/06 02:13:08;;;;;;;6.30;5.70;;;;;;;4.20;77.58;100597.38;5069476;28;20209;-80
2021/11/06 02:15:36;;;;;;;6.40;5.80;;;;;;;4.22;77.50;100599.88;5068552;28;20231;-80
2021/11/06 02:18:05;;;;;;;6.67;5.77;;;;;;;4.15;77.50;100597.03;5034000;28;20201;-80
2021/11/06 02:20:32;;;;;;;7.63;6.20;;;;;;;4.06;77.70;100589.97;5071935;28;20272;-81
2021/11/06 02:23:01;;;;;;;7.00;6.30;;;;;;;4.02;77.79;100590.44;5050065;28;20240;-80
2021/11/06 02:25:29;;;;;;;7.20;6.00;;;;;;;3.93;77.83;100598.34;5051124;28;20311;-80
2021/11/06 02:28:17;;;;;;;9.27;5.90;;;;;;;3.98;77.99;100614.63;5068710;28;20220;-80
2021/11/06 02:30:45;;;;;;;6.30;5.70;;;;;;;4.03;78.29;100611.50;5068037;28;20248;-79
2021/11/06 02:33:12;;;;;;;6.37;5.77;;;;;;;3.94;78.03;100617.75;5049871;28;20194;-80
2021/11/06 02:35:42;;;;;;;8.67;7.37;;;;;;;3.89;78.43;100604.09;5066964;28;20288;-80
2021/11/06 02:38:11;;;;;;;6.67;6.07;;;;;;;3.88;78.63;100619.16;5067703;28;20300;-80
2021/11/06 02:40:40;;;;;;;7.83;7.13;;;;;;;3.86;78.29;100615.03;5069098;28;20275;-80
2021/11/06 02:43:09;;;;;;;7.93;7.10;;;;;;;3.82;78.69;100613.66;5067630;28;20237;-80
2021/11/06 02:45:37;;;;;;;7.63;6.93;;;;;;;3.79;78.22;100613.94;5068465;28;20225;-80
2021/11/06 02:48:05;;;;;;;7.73;6.93;;;;;;;3.77;78.50;100622.06;5036977;28;20259;-80
2021/11/06 02:50:42;;;;;;;8.47;7.17;;;;;;;3.72;78.35;100624.34;5054768;28;20239;-80
2021/11/06 02:53:09;;;;;;;7.80;6.87;;;;;;;3.60;78.44;100611.44;5070956;28;20289;-81
2021/11/06 02:55:37;;;;;;;7.23;6.53;;;;;;;3.66;78.71;100624.94;5070368;28;20228;-80
2021/11/06 02:58:05;;;;;;;7.83;6.30;;;;;;;3.55;78.51;100641.88;5087512;23;20224;-80
2021/11/06 03:00:32;;;;;;;8.10;6.63;;;;;;;3.46;78.45;100618.94;5076035;28;20231;-80
2021/11/06 03:03:04;;;;;;;7.53;6.83;;;;;;;3.40;78.52;100622.22;5113191;22;20235;-80
2021/11/06 03:05:32;;;;;;;7.20;6.50;;;;;;;3.35;78.70;100626.28;5114690;22;20204;-80
2021/11/06 03:07:59;;;;;;;7.90;6.80;;;;;;;3.34;78.99;100643.16;5093993;28;20281;-80
2021/11/06 03:10:32;;;;;;;8.37;7.57;;;;;;;3.27;78.89;100642.06;5096580;28;20248;-80
2021/11/06 03:13:01;;;;;;;7.83;7.00;;;;;;;3.19;78.73;100632.22;5118619;22;20300;-80
2021/11/06 03:15:30;;;;;;;9.23;7.40;;;;;;;3.13;79.16;100635.44;5095532;28;20196;-79
2021/11/06 03:17:56;;;;;;;9.00;7.07;;;;;;;3.02;79.55;100631.22;5077865;28;20280;-83
2021/11/06 03:20:32;;;;;;;8.23;7.37;;;;;;;3.04;79.36;100647.75;5082374;23;20222;-81
2021/11/06 03:23:02;;;;;;;8.10;7.30;;;;;;;2.93;79.36;100631.25;5069057;23;20235;-83
2021/11/06 03:25:31;;;;;;;9.07;8.10;;;;;;;2.93;79.87;100644.47;5090570;28;20240;-83
2021/11/06 03:27:58;;;;;;;8.33;7.50;;;;;;;2.90;79.91;100637.66;5056571;28;20224;-79
2021/11/06 03:30:25;;;;;;;8.07;7.20;;;;;;;2.85;80.19;100642.53;5072295;28;20250;-82
2021/11/06 03:32:57;;;;;;;9.00;7.80;;;;;;;2.74;79.98;100626.88;5074009;28;20243;-82
2021/11/06 03:35:49;;;;;;;9.87;7.97;;;;;;;2.82;80.44;100650.78;5114854;22;20247;31
2021/11/06 03:38:44;;;;;;;10.47;8.30;;;;;;;2.77;80.96;100660.97;5082967;23;20227;-79
2021/11/06 03:41:12;;;;;;;10.83;8.17;;;;;;;2.72;80.86;100659.72;5029613;28;20539;-82
2021/11/06 03:43:43;;;;;;;9.20;8.10;;;;;;;2.67;80.71;100666.28;5048566;28;20215;-82
2021/11/06 03:46:14;;;;;;;9.47;7.73;;;;;;;2.69;80.57;100667.97;5032229;28;20243;-82
2021/11/06 03:48:41;;;;;;;8.97;8.07;;;;;;;2.57;80.31;100657.53;5045095;23;20219;-82
2021/11/06 03:51:13;;;;;;;8.13;7.33;;;;;;;2.57;81.13;100669.94;5087017;28;20189;-81
2021/11/06 03:53:40;;;;;;;8.77;7.73;;;;;;;2.53;80.80;100664.09;5070510;28;20192;-82
2021/11/06 03:56:08;;;;;;;10.50;8.40;;;;;;;2.48;81.39;100670.78;5089642;23;20236;-81
2021/11/06 03:58:37;;;;;;;9.30;8.40;;;;;;;2.46;81.42;100673.59;5055014;28;20244;-82
2021/11/06 04:01:04;;;;;;;10.07;8.60;;;;;;;2.36;81.93;100662.19;5104446;28;20570;-81
2021/11/06 04:03:30;;;;;;;9.67;8.20;;;;;;;2.37;82.09;100668.31;5082241;22;20293;-81
2021/11/06 04:05:58;;;;;;;9.90;8.43;;;;;;;2.40;81.89;100665.38;5014708;28;20523;-81
2021/11/06 04:08:25;;;;;;;9.23;8.33;;;;;;;2.39;81.73;100667.19;5072900;22;20284;-81
2021/11/06 04:10:53;;;;;;;9.63;8.27;;;;;;;2.31;81.65;100667.06;5071013;28;20208;-81
2021/11/06 04:13:27;;;;;;;9.60;8.27;;;;;;;2.33;81.58;100667.78;5104011;23;20235;-81
2021/11/06 04:15:56;;;;;;;9.43;8.43;;;;;;;2.25;81.82;100658.84;5057012;28;20276;-80
2021/11/06 04:18:26;;;;;;;8.60;7.60;;;;;;;2.20;81.57;100659.28;5092171;28;20177;-81
2021/11/06 04:21:02;;;;;;;9.37;8.37;;;;;;;2.21;82.00;100677.66;5089000;28;20219;-81
2021/11/06 04:23:32;;;;;;;10.63;8.97;;;;;;;2.11;81.92;100665.41;5088409;28;20229;-82
2021/11/06 04:25:59;;;;;;;10.57;8.33;;;;;;;2.14;82.01;100673.94;5078335;23;20293;-82
2021/11/06 04:28:30;;;;;;;10.57;8.93;;;;;;;2.15;82.18;100685.31;5110898;22;20228;-81
2021/11/06 04:30:59;;;;;;;10.00;9.00;;;;;;;2.05;82.08;100668.63;5088981;28;20220;-82
2021/11/06 04:33:28;;;;;;;12.00;10.50;;;;;;;2.11;82.77;100676.00;5088999;28;20224;-81
2021/11/06 04:35:59;;;;;;;11.50;10.30;;;;;;;2.02;82.25;100669.72;5086195;28;20228;-80
2021/11/06 04:38:27;;;;;;;12.43;10.73;;;;;;;2.04;82.17;100666.97;5085300;28;20223;-81
2021/11/06 04:40:53;;;;;;;12.30;10.60;;;;;;;2.09;82.75;100686.72;5085613;28;20313;-81
2021/11/06 04:43:26;;;;;;;11.63;10.23;;;;;;;2.08;82.53;100684.22;5068719;28;20217;-81
2021/11/06 04:45:58;;;;;;;12.43;10.10;;;;;;;2.03;82.81;100689.91;5085177;28;20532;-81
2021/11/06 04:48:34;;;;;;;12.33;10.03;;;;;;;1.99;82.86;100677.97;5088454;28;20209;-81
2021/11/06 04:51:03;;;;;;;12.97;10.33;;;;;;;2.01;83.18;100683.06;5093243;23;20314;-81
2021/11/06 04:53:32;;;;;;;10.37;9.27;;;;;;;1.98;83.16;100676.28;5072123;28;20235;-81
2021/11/06 04:55:59;;;;;;;10.37;9.27;;;;;;;1.90;82.72;100672.66;5069223;28;20320;-81
2021/11/06 04:58:27;;;;;;;11.70;10.00;;;;;;;1.83;82.68;100668.91;5104953;28;20288;-81
2021/11/06 05:00:53;;;;;;;10.47;9.13;;;;;;;1.89;82.86;100689.50;5086532;28;20698;-81
2021/11/06 05:03:23;;;;;;;10.97;9.47;;;;;;;1.86;83.03;100687.13;5087825;28;20208;-80
2021/11/06 05:05:49;;;;;;;13.70;9.60;;;;;;;1.80;83.12;100691.16;5084962;28;20216;-81
2021/11/06 05:08:18;;;;;;;10.60;9.50;;;;;;;1.69;83.59;100681.53;5083148;28;20258;-81
2021/11/06 05:10:48;;;;;;;12.10;9.73;;;;;;;1.74;83.15;100695.19;5084660;28;20255;-81
2021/11/06 05:13:15;;;;;;;11.23;9.50;;;;;;;1.65;83.40;100684.59;5100739;28;20707;-82
2021/11/06 05:15:45;;;;;;;10.83;9.30;;;;;;;1.69;83.59;100697.38;5050920;28;20229;-81
2021/11/06 05:18:14;;;;;;;11.13;9.57;;;;;;;1.64;83.61;100696.97;5066221;28;20274;-81
2021/11/06 05:20:43;;;;;;;11.97;9.87;;;;;;;1.54;83.64;100693.47;5084580;28;20508;-80
2021/11/06 05:23:14;;;;;;;11.83;9.73;;;;;;;1.50;83.93;100697.34;5077933;22;20348;-80
2021/11/06 05:25:44;;;;;;;12.00;9.90;;;;;;;1.55;83.62;100700.41;5047721;28;20236;-82
2021/11/06 05:28:14;;;;;;;11.17;9.60;;;;;;;1.49;84.20;100690.44;5033731;28;20209;-82
2021/11/06 05:30:42;;;;;;;11.93;10.03;;;;;;;1.45;84.15;100696.09;5049808;28;20295;-82
2021/11/06 05:33:09;;;;;;;11.97;9.80;;;;;;;1.43;83.53;100688.31;5063310;28;20608;-81
2021/11/06 05:35:37;;;;;;;11.37;9.53;;;;;;;1.27;84.31;100670.34;5063633;28;20186;-82
2021/11/06 05:38:04;;;;;;;10.80;9.10;;;;;;;1.43;83.93;100711.25;5031348;28;20214;-82
2021/11/06 05:40:31;;;;;;;12.43;10.07;;;;;;;1.38;84.13;100700.25;5073888;23;20266;-81
2021/11/06 05:42:57;;;;;;;12.80;10.47;;;;;;;1.41;84.04;100713.16;5088966;28;20216;-81
2021/11/06 05:45:25;;;;;;;13.30;10.90;;;;;;;1.41;84.17;100713.16;5096476;22;20282;-81
2021/11/06 05:47:52;;;;;;;13.57;10.83;;;;;;;1.35;84.82;100717.22;5085145;28;20666;-80
2021/11/06 05:50:19;;;;;;;12.80;10.20;;;;;;;1.31;84.54;100713.97;5084386;28;20203;-80
2021/11/06 05:52:45;;;;;;;12.17;10.60;;;;;;;1.32;84.36;100725.38;5086898;28;20225;-82
2021/11/06 05:55:26;;;;;;;13.43;11.50;;;;;;;1.32;84.45;100720.94;5080230;22;20221;-81
2021/11/06 05:57:53;;;;;;;12.67;11.00;;;;;;;1.38;84.47;100734.56;5055352;23;20229;-81
2021/11/06 06:00:20;;;;;;;14.83;11.97;;;;;;;1.38;84.14;100731.94;5056215;23;20223;-80
2021/11/06 06:02:48;;;;;;;16.03;11.90;;;;;;;1.34;84.19;100720.81;5047089;28;20516;-81
2021/11/06 06:05:15;;;;;;;11.07;9.83;;;;;;;1.37;84.51;100730.25;5046316;28;20228;-81
2021/11/06 06:07:42;;;;;;;11.67;9.97;;;;;;;1.48;84.24;100735.44;5065646;28;20277;-82
2021/11/06 06:10:18;;;;;;;11.20;9.67;;;;;;;1.51;84.41;100743.09;5063537;28;20656;-81
2021/11/06 06:12:50;;;;;;;10.90;9.57;;;;;;;1.57;84.23;100753.97;5067048;28;20231;-80
2021/11/06 06:15:18;;;;;;;11.57;9.53;;;;;;;1.63;84.46;100761.31;5092349;23;20724;-81
2021/11/06 06:17:46;;;;;;;11.80;10.17;;;;;;;1.61;84.20;100750.06;5109705;28;20243;-81
2021/11/06 06:20:13;;;;;;;11.70;9.30;;;;;;;1.67;84.23;100749.53;5107502;28;20220;-81
2021/11/06 06:22:45;;;;;;;11.47;9.27;;;;;;;1.79;83.89;100768.75;5121823;22;20222;-81
2021/11/06 06:25:13;;;;;;;11.93;8.50;;;;;;;1.83;84.17;100759.56;5109518;28;20224;-81
2021/11/06 06:27:40;;;;;;;10.30;9.03;;;;;;;1.90;84.09;100765.16;5094587;23;20239;-81
2021/11/06 06:30:13;;;;;;;9.17;8.23;;;;;;;1.97;83.78;100767.13;5101978;28;20261;-81
2021/11/06 06:32:40;;;;;;;11.33;8.63;;;;;;;2.11;84.19;100771.16;5088096;28;20208;-81
2021/11/06 06:35:08;;;;;;;9.83;8.63;;;;;;;2.17;83.58;100781.19;5069679;28;20247;-81
2021/11/06 06:37:35;;;;;;;10.10;8.93;;;;;;;2.26;83.88;100774.25;5092592;23;20579;-81
2021/11/06 06:40:07;;;;;;;9.47;8.20;;;;;;;2.34;83.87;100775.22;5107738;28;20228;-82
2021/11/06 06:42:34;;;;;;;9.40;8.40;;;;;;;2.38;83.17;100766.03;5090044;28;20193;-81
2021/11/06 06:45:01;;;;;;;9.67;8.37;;;;;;;2.47;83.51;100767.03;5086754;28;20279;-81
2021/11/06 06:47:30;;;;;;;9.07;7.87;;;;;;;2.64;83.16;100785.66;5107985;28;20251;-81
2021/11/06 06:49:57;;;;;;;9.20;8.27;;;;;;;2.69;82.82;100779.94;5075880;28;20288;-81
2021/11/06 06:52:24;;;;;;;9.40;7.57;;;;;;;2.74;82.50;100769.78;5094058;28;20228;-81
2021/11/06 06:54:51;;;;;;;9.13;8.10;;;;;;;2.88;82.49;100773.78;5113875;28;20207;-81
2021/11/06 06:57:19;;;;;;;8.97;7.87;;;;;;;2.99;82.75;100789.47;5072853;28;20227;-82
2021/11/06 06:59:45;;;;;;;8.60;7.70;;;;;;;3.04;82.42;100774.00;5110190;28;20331;-81
2021/11/06 07:02:15;;;;;;;9.33;8.23;;;;;;;3.15;82.48;100781.78;5091950;28;20250;-81
2021/11/06 07:04:42;;;;;;;9.10;7.47;;;;;;;3.27;82.11;100782.44;5073585;28;20310;-81
2021/11/06 07:07:10;;;;;;;8.40;7.53;;;;;;;3.37;81.88;100781.44;5089339;28;20238;-81
2021/11/06 07:09:37;;;;;;;8.83;7.93;;;;;;;3.58;81.98;100790.97;5091261;28;20196;-82
2021/11/06 07:12:10;;;;;;;8.70;7.80;;;;;;;3.64;81.76;100782.44;5073298;28;20296;-82
2021/11/06 07:14:41;;;;;;;8.90;7.80;;;;;;;3.85;81.42;100796.28;5107566;28;20299;-83
2021/11/06 07:17:08;;;;;;;9.73;7.73;;;;;;;3.91;81.13;100790.38;5106812;28;20227;-82
2021/11/06 07:19:35;;;;;;;8.93;7.97;;;;;;;4.09;81.25;100798.38;5087532;28;20228;-82
2021/11/06 07:22:02;;;;;;;8.60;7.70;;;;;;;4.22;81.13;100791.72;5092742;28;20224;-82
2021/11/06 07:24:29;;;;;;;8.60;7.70;;;;;;;4.28;80.19;100795.59;5091807;28;20208;-81
2021/11/06 07:26:58;;;;;;;9.07;8.17;;;;;;;4.36;80.10;100791.19;5109575;28;20227;-81
2021/11/06 07:29:26;;;;;;;10.43;8.90;;;;;;;4.59;79.23;100786.25;5090397;28;20302;-80
2021/11/06 07:31:53;;;;;;;10.23;9.23;;;;;;;4.61;78.83;100780.78;5109167;28;20224;-82
2021/11/06 07:34:19;;;;;;;10.53;9.03;;;;;;;4.73;78.85;100788.34;5108751;28;20318;-81
2021/11/06 07:36:49;;;;;;;10.10;9.00;;;;;;;4.85;79.24;100797.72;5107654;28;20255;-80
2021/11/06 07:39:17;;;;;;;9.93;8.60;;;;;;;4.86;79.37;100790.59;5109354;28;20642;-81
2021/11/06 07:41:45;;;;;;;9.80;8.73;;;;;;;4.90;79.05;100781.34;5106864;28;20212;-82
2021/11/06 07:44:13;;;;;;;8.97;8.17;;;;;;;5.08;78.96;100798.09;5091183;28;20269;-81
2021/11/06 07:46:40;;;;;;;9.27;8.37;;;;;;;5.23;78.29;100799.16;5115545;23;20224;-80
2021/11/06 07:49:08;;;;;;;10.03;8.63;;;;;;;5.20;77.77;100785.38;5092382;28;20220;-81
2021/11/06 07:51:59;;;;;;;11.10;8.83;;;;;;;5.33;78.12;100815.00;5093183;28;20298;-82
2021/11/06 07:54:27;;;;;;;9.13;7.73;;;;;;;5.43;77.08;100817.53;5099588;23;20308;-81
2021/11/06 07:56:58;;;;;;;11.90;8.70;;;;;;;5.60;77.64;100825.44;5086462;28;20189;-82
2021/11/06 07:59:25;;;;;;;10.73;9.63;;;;;;;5.74;77.64;100826.66;5099296;23;20239;-83
2021/11/06 08:01:53;;;;;;;11.30;10.20;;;;;;;6.00;76.43;100816.84;5109222;28;20252;-82
2021/11/06 08:04:22;;;;;;;11.07;9.90;;;;;;;6.15;76.43;100827.72;5105686;28;20506;-82
2021/11/06 08:06:49;;;;;;;10.17;9.17;;;;;;;6.22;75.51;100814.56;5105496;28;20318;-81
2021/11/06 08:09:16;;;;;;;9.23;8.33;;;;;;;6.39;75.74;100827.75;5106579;28;20219;-82
2021/11/06 08:11:43;;;;;;;8.57;7.70;;;;;;;6.36;74.40;100806.78;5107177;28;20699;-82
2021/11/06 08:14:11;;;;;;;8.20;7.40;;;;;;;6.61;75.16;100831.63;5113200;22;20247;-83
2021/11/06 08:16:43;;;;;;;8.07;7.27;;;;;;;6.72;74.68;100825.16;5089547;28;20227;-82
2021/11/06 08:19:11;;;;;;;8.83;7.93;;;;;;;6.92;73.42;100829.97;5088333;28;20227;-82
2021/11/06 08:21:37;;;;;;;7.83;7.13;;;;;;;6.93;73.07;100818.31;5104912;28;20224;-82
2021/11/06 08:24:06;;;;;;;9.47;7.30;;;;;;;7.03;72.15;100826.13;5087549;28;20258;-82
2021/11/06 08:26:34;;;;;;;8.00;7.20;;;;;;;7.08;72.53;100842.47;5075447;28;20242;-80
2021/11/06 08:29:01;;;;;;;7.73;6.93;;;;;;;7.07;72.46;100824.81;5091249;28;20192;-79
2021/11/06 08:31:28;;;;;;;8.03;7.23;;;;;;;7.13;71.98;100832.13;5107071;28;20231;-85
2021/11/06 08:33:56;;;;;;;7.77;7.00;;;;;;;7.22;72.00;100828.47;5090289;28;20311;-83
2021/11/06 08:36:22;;;;;;;8.53;7.07;;;;;;;7.30;71.51;100835.59;5089168;28;20231;-82
2021/11/06 08:38:51;;;;;;;9.27;7.17;;;;;;;7.39;71.49;100830.09;5100738;28;20311;-82
2021/11/06 08:41:18;;;;;;;8.33;6.47;;;;;;;7.46;71.05;100822.25;5089601;28;20208;-82
2021/11/06 08:43:45;;;;;;;7.30;6.57;;;;;;;7.57;70.68;100827.19;5089372;28;20220;-80
2021/11/06 08:46:12;;;;;;;8.73;6.80;;;;;;;7.61;70.44;100823.19;5105478;28;20230;-80
2021/11/06 08:48:41;;;;;;;8.43;7.60;;;;;;;7.71;70.44;100814.97;5108191;28;20230;-81
2021/11/06 08:51:08;;;;;;;8.33;7.43;;;;;;;7.77;70.08;100823.13;5108201;28;20224;-79
2021/11/06 08:53:35;;;;;;;8.03;6.90;;;;;;;7.81;69.83;100818.28;5109652;28;20219;-82
2021/11/06 08:56:02;;;;;;;8.10;7.30;;;;;;;7.93;69.19;100819.59;5105639;28;20211;-79
2021/11/06 08:58:32;;;;;;;7.57;6.63;;;;;;;8.11;68.55;100819.31;5089882;28;20230;-80
2021/11/06 09:01:00;;;;;;;7.30;6.60;;;;;;;8.21;68.74;100819.94;5105886;28;20666;-81
2021/11/06 09:03:28;;;;;;;7.87;7.07;;;;;;;8.19;68.27;100825.44;5106267;28;20281;-80
2021/11/06 09:05:56;;;;;;;7.53;6.80;;;;;;;8.34;67.86;100822.91;5106023;28;20232;-81
2021/11/06 09:08:28;;;;;;;7.90;7.10;;;;;;;8.61;67.42;100833.06;5085462;28;20258;-80
2021/11/06 09:11:04;;;;;;;8.53;7.03;;;;;;;8.62;66.91;100829.38;5103243;28;20237;-80
2021/11/06 09:13:32;;;;;;;8.17;7.33;;;;;;;8.64;66.78;100826.53;5106054;28;20238;-80
2021/11/06 09:16:06;;;;;;;7.77;7.07;;;;;;;8.68;66.55;100819.81;5105935;28;20217;-82
2021/11/06 09:18:37;;;;;;;8.97;7.50;;;;;;;8.91;65.89;100822.50;5113761;22;20232;-80
2021/11/06 09:21:10;;;;;;;8.03;7.00;;;;;;;8.89;66.14;100800.44;5073454;28;20238;-82
2021/11/06 09:23:38;;;;;;;8.43;7.63;;;;;;;8.95;67.23;100813.94;5069495;28;20229;-82
2021/11/06 09:26:05;;;;;;;8.27;7.30;;;;;;;9.11;67.13;100821.78;5106182;28;20248;-81
2021/11/06 09:28:40;;;;;;;8.87;7.93;;;;;;;9.23;66.55;100827.53;5085933;28;20224;-80
2021/11/06 09:31:26;;;;;;;8.03;7.33;;;;;;;9.30;65.64;100823.13;5087826;28;20227;-80
2021/11/06 09:33:55;;;;;;;10.30;7.37;;;;;;;9.44;65.72;100826.81;5067080;28;20197;-81
2021/11/06 09:36:22;;;;;;;8.07;7.27;;;;;;;9.47;65.09;100824.59;5082060;28;20315;-80
2021/11/06 09:38:50;;;;;;;8.27;7.37;;;;;;;9.58;64.59;100826.00;5067353;28;20258;-80
2021/11/06 09:41:22;;;;;;;7.90;7.00;;;;;;;9.66;64.47;100823.22;5066767;28;20230;-80
2021/11/06 09:43:52;;;;;;;7.60;6.90;;;;;;;9.70;64.39;100820.00;5084509;28;20316;-81
2021/11/06 09:46:19;;;;;;;8.03;6.93;;;;;;;9.70;63.78;100805.81;5051290;28;20226;-80
2021/11/06 09:48:48;;;;;;;9.27;7.17;;;;;;;10.04;63.66;100837.31;5062841;22;20298;-80
2021/11/06 09:51:17;;;;;;;8.13;7.33;;;;;;;10.20;63.39;100833.66;5004857;28;20242;-80
2021/11/06 09:53:47;;;;;;;8.13;7.37;;;;;;;10.25;62.63;100813.31;5005123;28;20277;-81
2021/11/06 09:56:21;;;;;;;6.87;6.17;;;;;;;10.53;59.84;100819.59;5003736;28;20235;-80
2021/11/06 09:58:49;;;;;;;6.50;5.90;;;;;;;10.51;59.88;100821.63;5022965;28;20630;-81
2021/11/06 10:01:15;;;;;;;6.70;6.10;;;;;;;10.51;60.22;100810.09;5005427;28;20230;-80
2021/11/06 10:03:46;;;;;;;6.30;5.80;;;;;;;10.64;58.78;100806.72;5006044;28;20234;-81
2021/11/06 10:06:23;;;;;;;7.50;6.80;;;;;;;10.73;59.93;100802.91;5022067;28;20234;-81
2021/11/06 10:08:51;;;;;;;7.43;6.73;;;;;;;10.83;60.70;100809.56;5022306;28;20230;-82
2021/11/06 10:11:32;;;;;;;7.17;6.47;;;;;;;10.85;59.96;100804.84;5021704;28;20286;-80
2021/11/06 10:14:08;;;;;;;7.77;6.50;;;;;;;10.95;60.33;100797.31;5022367;28;20229;-81
2021/11/06 10:16:44;;;;;;;8.00;6.93;;;;;;;11.13;59.86;100786.09;5020539;28;20520;-79
2021/11/06 10:19:30;;;;;;;7.33;6.63;;;;;;;11.25;60.00;100789.06;5037710;28;20226;-81
2021/11/06 10:22:22;;;;;;;7.33;6.60;;;;;;;11.22;59.76;100774.19;5021798;28;20569;-80
2021/11/06 10:24:52;;;;;;;6.43;5.83;;;;;;;11.32;58.78;100768.50;5021119;28;20243;-80
2021/11/06 10:27:20;;;;;;;6.93;6.17;;;;;;;11.42;58.82;100777.84;5006272;28;20222;-81
2021/11/06 10:30:15;;;;;;;6.97;6.27;;;;;;;11.39;57.83;100775.53;5011396;28;20240;-81
2021/11/06 10:32:45;;;;;;;6.70;6.10;;;;;;;11.37;58.33;100753.47;5025358;28;20642;-80
2021/11/06 10:35:18;;;;;;;5.33;4.83;;;;;;;11.50;57.56;100758.06;5011098;28;20226;-80
2021/11/06 10:37:48;;;;;;;4.50;4.10;;;;;;;11.52;56.43;100758.72;5026748;28;20234;-80
2021/11/06 10:40:20;;;;;;;4.43;4.03;;;;;;;11.61;56.50;100745.94;5025580;28;20233;-80
2021/11/06 10:42:53;;;;;;;4.00;3.70;;;;;;;11.85;56.41;100746.28;5011677;28;20234;-82
2021/11/06 10:45:25;;;;;;;4.40;4.00;;;;;;;11.83;55.44;100751.03;5011466;28;20294;-80
2021/11/06 10:48:06;;;;;;;4.77;4.10;;;;;;;11.80;55.04;100747.94;5010688;28;20520;-81
2021/11/06 10:50:45;;;;;;;4.60;4.20;;;;;;;11.81;54.59;100744.19;5025773;28;20547;-82
2021/11/06 10:53:14;;;;;;;4.67;4.27;;;;;;;11.84;56.09;100738.44;5024169;28;20529;-81
2021/11/06 10:55:43;;;;;;;4.97;4.47;;;;;;;12.01;55.84;100749.63;5007666;28;20242;-80
2021/11/06 10:58:24;;;;;;;5.10;4.60;;;;;;;12.13;56.27;100739.97;5026778;28;20223;-80
2021/11/06 11:00:57;;;;;;;5.33;4.83;;;;;;;11.88;55.57;100728.94;5001189;28;20227;-80
2021/11/06 11:03:45;;;;;;;5.03;4.60;;;;;;;11.84;55.84;100723.16;5006061;28;20236;-80
2021/11/06 11:06:17;;;;;;;4.77;4.37;;;;;;;12.10;55.18;100727.78;5020312;28;20246;-81
2021/11/06 11:08:50;;;;;;;4.60;4.20;;;;;;;11.71;54.79;100709.63;5037158;28;20249;-80
2021/11/06 11:11:20;;;;;;;4.83;4.33;;;;;;;11.71;55.29;100717.69;5024348;28;20560;-80
2021/11/06 11:13:50;;;;;;;4.80;4.40;;;;;;;11.84;56.11;100727.69;5008434;28;20234;-79
2021/11/06 11:16:17;;;;;;;5.40;4.90;;;;;;;11.70;55.90;100716.06;5024581;28;20230;-80
2021/11/06 11:18:46;;;;;;;4.73;4.23;;;;;;;11.76;55.50;100712.56;5023574;28;20218;-82
2021/11/06 11:21:22;;;;;;;5.00;4.50;;;;;;;12.00;55.48;100723.81;5023665;28;20233;-79
2021/11/06 11:23:51;;;;;;;4.90;4.30;;;;;;;12.06;55.13;100717.63;5007663;28;20241;-80
2021/11/06 11:26:24;;;;;;;4.90;4.50;;;;;;;12.00;55.03;100721.94;5004085;28;20250;-80
2021/11/06 11:28:55;;;;;;;4.90;4.43;;;;;;;12.00;55.16;100713.91;5011439;28;20227;-80
2021/11/06 11:34:34;;;;;;;3.77;3.47;;;;;;;12.07;52.41;100704.00;5080881;28;20251;-80
2021/11/06 11:37:05;;;;;;;3.10;2.80;;;;;;;12.05;52.66;100705.22;5062656;28;20229;-80
2021/11/06 11:39:36;;;;;;;3.33;3.07;;;;;;;12.00;52.54;100697.78;5053996;28;20281;-82
2021/11/06 11:42:07;;;;;;;3.33;3.03;;;;;;;12.17;52.58;100701.75;5054432;28;20217;-79
2021/11/06 11:45:24;;;;;;;4.00;3.60;;;;;;;12.22;53.01;100698.47;5070043;28;20230;-80